createdAt,value
2023-03-06T00:00:01.754Z,1.80
2023-03-06T00:00:39.294Z,1.80
2023-03-06T00:02:28.186Z,1.91
2023-03-06T00:04:54.567Z,1.82
2023-03-06T00:05:39.332Z,1.82
2023-03-06T00:07:20.951Z,1.99
2023-03-06T00:09:47.295Z,1.95
2023-03-06T00:10:39.309Z,1.95
2023-03-06T00:12:13.701Z,1.83
2023-03-06T00:14:40.098Z,1.46
2023-03-06T00:15:39.335Z,1.46
2023-03-06T00:17:06.554Z,1.81
2023-03-06T00:19:32.930Z,1.33
2023-03-06T00:20:39.312Z,1.33
2023-03-06T00:21:59.320Z,1.54
2023-03-06T00:24:25.678Z,1.11
2023-03-06T00:25:39.315Z,1.11
2023-03-06T00:26:52.132Z,1.52
2023-03-06T00:29:18.675Z,0.93
2023-03-06T00:30:39.321Z,0.93
2023-03-06T00:31:47.779Z,2.03
2023-03-06T00:34:14.929Z,1.48
2023-03-06T00:35:39.399Z,1.48
2023-03-06T00:36:41.834Z,1.97
2023-03-06T00:39:08.274Z,2.02
2023-03-06T00:40:39.346Z,2.02
2023-03-06T00:41:34.671Z,2.05
2023-03-06T00:44:01.057Z,1.50
2023-03-06T00:45:39.353Z,1.50
2023-03-06T00:46:27.487Z,1.74
2023-03-06T00:48:53.888Z,1.88
2023-03-06T00:50:39.354Z,1.88
2023-03-06T00:51:21.586Z,1.66
2023-03-06T00:53:48.517Z,1.45
2023-03-06T00:55:39.306Z,1.45
2023-03-06T00:56:14.922Z,1.95
2023-03-06T00:58:41.603Z,1.94
2023-03-06T01:00:39.384Z,1.94
2023-03-06T01:01:08.197Z,1.55
2023-03-06T01:03:34.604Z,1.39
2023-03-06T01:05:39.315Z,1.39
2023-03-06T01:06:00.995Z,1.41
2023-03-06T01:08:27.410Z,1.68
2023-03-06T01:10:39.321Z,1.68
2023-03-06T01:10:56.209Z,1.86
2023-03-06T01:13:22.708Z,0.87
2023-03-06T01:15:39.362Z,0.87
2023-03-06T01:15:49.050Z,1.78
2023-03-06T01:18:15.608Z,1.68
2023-03-06T01:20:39.292Z,1.68
2023-03-06T01:20:42.023Z,1.51
2023-03-06T01:23:08.385Z,1.50
2023-03-06T01:25:34.783Z,1.62
2023-03-06T01:25:39.330Z,1.62
2023-03-06T01:28:01.174Z,1.85
2023-03-06T01:30:27.572Z,1.40
2023-03-06T01:30:39.381Z,1.40
2023-03-06T01:32:53.998Z,1.74
2023-03-06T01:35:20.386Z,1.10
2023-03-06T01:35:39.392Z,1.10
2023-03-06T01:37:46.748Z,1.40
2023-03-06T01:40:13.517Z,1.14
2023-03-06T01:40:39.324Z,1.14
2023-03-06T01:42:40.356Z,1.89
2023-03-06T01:45:26.906Z,1.93
2023-03-06T01:45:39.345Z,1.93
2023-03-06T01:47:53.237Z,1.68
2023-03-06T01:50:19.789Z,1.16
2023-03-06T01:50:39.314Z,1.16
2023-03-06T01:52:52.548Z,0.72
2023-03-06T01:55:22.985Z,1.19
2023-03-06T01:55:39.441Z,1.19
2023-03-06T01:57:57.690Z,1.78
2023-03-06T02:00:27.291Z,1.88
2023-03-06T02:00:39.326Z,1.88
2023-03-06T02:02:57.811Z,1.66
2023-03-06T02:05:24.299Z,1.57
2023-03-06T02:05:39.369Z,1.57
2023-03-06T02:07:51.782Z,1.64
2023-03-06T02:10:20.087Z,1.41
2023-03-06T02:10:39.358Z,1.41
2023-03-06T02:12:49.211Z,1.78
2023-03-06T02:15:18.558Z,1.85
2023-03-06T02:15:39.346Z,1.85
2023-03-06T02:17:46.655Z,1.37
2023-03-06T02:20:22.251Z,1.84
2023-03-06T02:20:39.345Z,1.84
2023-03-06T02:22:57.580Z,1.86
2023-03-06T02:25:39.305Z,1.89
2023-03-06T02:25:39.453Z,1.89
2023-03-06T02:28:09.218Z,1.79
2023-03-06T02:30:36.211Z,0.89
2023-03-06T02:30:39.360Z,0.89
2023-03-06T02:33:03.559Z,1.87
2023-03-06T02:35:33.089Z,1.45
2023-03-06T02:35:39.372Z,1.45
2023-03-06T02:38:04.665Z,1.38
2023-03-06T02:40:31.764Z,1.29
2023-03-06T02:40:39.324Z,1.29
2023-03-06T02:42:58.889Z,1.82
2023-03-06T02:45:38.854Z,1.88
2023-03-06T02:45:39.374Z,1.88
2023-03-06T02:48:05.918Z,1.73
2023-03-06T02:50:32.539Z,1.36
2023-03-06T02:50:39.328Z,1.36
2023-03-06T02:52:59.003Z,1.51
2023-03-06T02:55:25.689Z,1.65
2023-03-06T02:55:39.370Z,1.65
2023-03-06T02:57:52.085Z,1.87
2023-03-06T03:00:19.298Z,1.20
2023-03-06T03:00:40.174Z,1.20
2023-03-06T03:02:45.754Z,1.81
2023-03-06T03:05:12.095Z,1.90
2023-03-06T03:05:39.350Z,1.90
2023-03-06T03:07:38.572Z,1.59
2023-03-06T03:10:05.310Z,1.80
2023-03-06T03:10:39.366Z,1.80
2023-03-06T03:12:32.235Z,1.64
2023-03-06T03:14:58.884Z,1.94
2023-03-06T03:15:39.377Z,1.94
2023-03-06T03:17:25.286Z,1.18
2023-03-06T03:19:51.821Z,1.87
2023-03-06T03:20:39.343Z,1.87
2023-03-06T03:22:18.743Z,1.84
2023-03-06T03:24:45.497Z,1.69
2023-03-06T03:25:39.347Z,1.69
2023-03-06T03:27:12.259Z,1.55
2023-03-06T03:29:38.649Z,1.86
2023-03-06T03:30:39.355Z,1.86
2023-03-06T03:32:05.515Z,0.51
2023-03-06T03:34:31.941Z,1.50
2023-03-06T03:35:39.394Z,1.50
2023-03-06T03:36:58.339Z,1.61
2023-03-06T03:39:24.797Z,1.76
2023-03-06T03:40:39.400Z,1.76
2023-03-06T03:41:51.131Z,1.89
2023-03-06T03:44:17.502Z,1.82
2023-03-06T03:45:39.357Z,1.82
2023-03-06T03:46:44.055Z,1.76
2023-03-06T03:49:10.753Z,1.84
2023-03-06T03:50:39.352Z,1.84
2023-03-06T03:51:37.180Z,1.78
2023-03-06T03:54:05.971Z,1.94
2023-03-06T03:55:39.362Z,1.94
2023-03-06T03:56:32.903Z,1.08
2023-03-06T03:58:59.855Z,1.96
2023-03-06T04:00:39.402Z,1.96
2023-03-06T04:01:26.371Z,1.84
2023-03-06T04:03:52.771Z,1.62
2023-03-06T04:05:39.338Z,1.62
2023-03-06T04:06:19.544Z,1.44
2023-03-06T04:08:46.000Z,1.92
2023-03-06T04:10:39.406Z,1.92
2023-03-06T04:11:12.455Z,1.61
2023-03-06T04:13:38.870Z,1.56
2023-03-06T04:15:39.358Z,1.56
2023-03-06T04:16:05.729Z,1.92
2023-03-06T04:18:32.159Z,1.92
2023-03-06T04:20:39.375Z,1.92
2023-03-06T04:20:58.632Z,1.50
2023-03-06T04:23:25.355Z,1.30
2023-03-06T04:25:39.349Z,1.30
2023-03-06T04:25:51.920Z,1.51
2023-03-06T04:28:18.312Z,1.54
2023-03-06T04:30:39.345Z,1.54
2023-03-06T04:30:44.760Z,1.73
2023-03-06T04:33:11.334Z,1.73
2023-03-06T04:35:38.025Z,1.87
2023-03-06T04:35:39.408Z,1.87
2023-03-06T04:38:05.200Z,1.88
2023-03-06T04:40:33.989Z,1.90
2023-03-06T04:40:39.345Z,1.90
2023-03-06T04:43:01.266Z,1.91
2023-03-06T04:45:29.897Z,1.93
2023-03-06T04:45:39.393Z,1.93
2023-03-06T04:47:56.630Z,1.82
2023-03-06T04:50:24.867Z,2.00
2023-03-06T04:50:39.395Z,2.00
2023-03-06T04:52:51.884Z,1.74
2023-03-06T04:55:18.816Z,1.35
2023-03-06T04:55:39.441Z,1.35
2023-03-06T04:57:47.050Z,1.43
2023-03-06T05:00:22.074Z,1.42
2023-03-06T05:00:39.381Z,1.42
2023-03-06T05:02:49.396Z,1.94
2023-03-06T05:05:17.473Z,1.15
2023-03-06T05:05:39.346Z,1.15
2023-03-06T05:07:44.333Z,1.32
2023-03-06T05:10:13.988Z,1.80
2023-03-06T05:10:39.374Z,1.80
2023-03-06T05:12:40.432Z,0.38
2023-03-06T05:15:07.960Z,1.93
2023-03-06T05:15:39.376Z,1.93
2023-03-06T05:17:34.512Z,1.88
2023-03-06T05:20:00.963Z,1.75
2023-03-06T05:20:39.380Z,1.75
2023-03-06T05:22:29.707Z,1.76
2023-03-06T05:24:56.119Z,1.52
2023-03-06T05:25:39.361Z,1.52
2023-03-06T05:27:22.586Z,1.14
2023-03-06T05:29:49.070Z,1.88
2023-03-06T05:30:39.349Z,1.88
2023-03-06T05:32:16.913Z,1.37
2023-03-06T05:34:43.326Z,1.87
2023-03-06T05:35:39.396Z,1.87
2023-03-06T05:37:09.706Z,1.88
2023-03-06T05:39:36.027Z,1.11
2023-03-06T05:40:39.351Z,1.11
2023-03-06T05:42:02.422Z,1.42
2023-03-06T05:44:33.300Z,1.87
2023-03-06T05:45:39.491Z,1.87
2023-03-06T05:47:00.076Z,1.83
2023-03-06T05:49:27.116Z,1.86
2023-03-06T05:50:39.376Z,1.86
2023-03-06T05:51:54.133Z,1.77
2023-03-06T05:54:21.147Z,1.71
2023-03-06T05:55:39.398Z,1.71
2023-03-06T05:56:47.490Z,0.96
2023-03-06T05:59:13.921Z,1.70
2023-03-06T06:00:39.365Z,1.70
2023-03-06T06:01:40.318Z,1.88
2023-03-06T06:04:06.667Z,1.65
2023-03-06T06:05:39.386Z,1.65
2023-03-06T06:06:33.017Z,1.82
2023-03-06T06:08:59.382Z,1.94
2023-03-06T06:10:39.362Z,1.94
2023-03-06T06:11:25.753Z,1.62
2023-03-06T06:13:52.142Z,1.70
2023-03-06T06:15:39.407Z,1.70
2023-03-06T06:16:22.036Z,1.82
2023-03-06T06:18:48.478Z,1.69
2023-03-06T06:20:39.374Z,1.69
2023-03-06T06:21:15.044Z,1.31
2023-03-06T06:23:41.602Z,1.48
2023-03-06T06:25:39.368Z,1.48
2023-03-06T06:26:10.006Z,1.48
2023-03-06T06:28:36.742Z,1.59
2023-03-06T06:30:39.363Z,1.59
2023-03-06T06:31:10.434Z,1.58
2023-03-06T06:33:36.839Z,1.50
2023-03-06T06:35:39.401Z,1.50
2023-03-06T06:36:03.445Z,1.79
2023-03-06T06:38:29.887Z,1.42
2023-03-06T06:40:39.352Z,1.42
2023-03-06T06:41:30.619Z,1.46
2023-03-06T06:43:42.631Z,1.94
2023-03-06T06:45:39.368Z,1.94
2023-03-06T06:46:36.458Z,0.94
2023-03-06T06:48:55.472Z,1.03
2023-03-06T06:50:39.385Z,1.03
2023-03-06T06:51:23.003Z,1.41
2023-03-06T06:53:53.254Z,1.77
2023-03-06T06:55:39.364Z,1.77
2023-03-06T06:56:19.625Z,1.13
2023-03-06T06:58:46.086Z,0.79
2023-03-06T07:00:39.374Z,0.79
2023-03-06T07:01:13.361Z,1.67
2023-03-06T07:03:40.717Z,1.79
2023-03-06T07:05:39.397Z,1.79
2023-03-06T07:06:07.628Z,1.64
2023-03-06T07:08:34.202Z,1.27
2023-03-06T07:10:39.411Z,1.27
2023-03-06T07:11:09.839Z,1.80
2023-03-06T07:13:36.481Z,1.19
2023-03-06T07:15:39.442Z,1.19
2023-03-06T07:16:02.900Z,1.98
2023-03-06T07:18:29.552Z,1.61
2023-03-06T07:20:39.384Z,1.61
2023-03-06T07:21:01.043Z,1.87
2023-03-06T07:23:27.863Z,1.57
2023-03-06T07:25:39.403Z,1.57
2023-03-06T07:25:55.107Z,2.25
2023-03-06T07:28:22.286Z,2.21
2023-03-06T07:30:39.403Z,2.21
2023-03-06T07:30:48.757Z,1.79
2023-03-06T07:33:15.574Z,2.01
2023-03-06T07:35:39.395Z,2.01
2023-03-06T07:35:43.047Z,1.32
2023-03-06T07:38:10.118Z,2.40
2023-03-06T07:40:38.799Z,2.20
2023-03-06T07:40:39.374Z,2.20
2023-03-06T07:43:18.620Z,2.39
2023-03-06T07:45:39.406Z,2.39
2023-03-06T07:45:46.955Z,1.62
2023-03-06T07:48:14.789Z,2.52
2023-03-06T07:50:39.384Z,2.52
2023-03-06T07:50:42.009Z,2.12
2023-03-06T07:53:10.149Z,2.27
2023-03-06T07:55:40.290Z,2.31
2023-03-06T07:55:40.449Z,2.31
2023-03-06T07:58:06.680Z,1.87
2023-03-06T08:00:33.407Z,2.73
2023-03-06T08:00:39.394Z,2.73
2023-03-06T08:02:59.845Z,2.69
2023-03-06T08:05:26.198Z,2.67
2023-03-06T08:05:39.411Z,2.67
2023-03-06T08:07:52.575Z,2.32
2023-03-06T08:10:19.153Z,1.35
2023-03-06T08:10:39.405Z,1.35
2023-03-06T08:12:45.534Z,2.17
2023-03-06T08:15:12.683Z,2.28
2023-03-06T08:15:39.382Z,2.28
2023-03-06T08:17:39.254Z,2.32
2023-03-06T08:20:10.351Z,2.32
2023-03-06T08:20:39.374Z,2.32
2023-03-06T08:22:36.958Z,2.08
2023-03-06T08:25:05.187Z,2.82
2023-03-06T08:25:39.406Z,2.82
2023-03-06T08:27:34.237Z,3.07
2023-03-06T08:30:00.786Z,2.76
2023-03-06T08:30:39.404Z,2.76
2023-03-06T08:32:28.096Z,3.42
2023-03-06T08:34:54.514Z,3.55
2023-03-06T08:35:39.404Z,3.55
2023-03-06T08:37:20.938Z,3.64
2023-03-06T08:39:47.305Z,3.59
2023-03-06T08:40:39.394Z,3.59
2023-03-06T08:42:14.498Z,2.82
2023-03-06T08:44:40.959Z,3.26
2023-03-06T08:45:39.454Z,3.26
2023-03-06T08:47:07.336Z,3.32
2023-03-06T08:49:33.792Z,3.06
2023-03-06T08:50:39.382Z,3.06
2023-03-06T08:52:00.979Z,2.76
2023-03-06T08:54:27.333Z,3.09
2023-03-06T08:55:39.394Z,3.09
2023-03-06T08:56:54.207Z,3.15
2023-03-06T08:59:20.604Z,3.79
2023-03-06T09:00:39.417Z,3.79
2023-03-06T09:01:47.001Z,3.27
2023-03-06T09:04:13.382Z,3.33
2023-03-06T09:05:39.394Z,3.33
2023-03-06T09:06:42.140Z,3.12
2023-03-06T09:09:09.011Z,3.12
2023-03-06T09:10:39.469Z,3.12
2023-03-06T09:11:35.943Z,3.71
2023-03-06T09:14:02.581Z,3.88
2023-03-06T09:15:39.383Z,3.88
2023-03-06T09:16:29.165Z,2.77
2023-03-06T09:18:55.627Z,3.89
2023-03-06T09:20:39.364Z,3.89
2023-03-06T09:21:22.793Z,3.88
2023-03-06T09:23:49.588Z,3.85
2023-03-06T09:25:39.488Z,3.85
2023-03-06T09:26:15.983Z,4.03
2023-03-06T09:28:42.426Z,3.95
2023-03-06T09:30:39.454Z,3.95
2023-03-06T09:31:15.412Z,3.82
2023-03-06T09:33:42.443Z,3.76
2023-03-06T09:35:39.429Z,3.76
2023-03-06T09:36:14.387Z,3.59
2023-03-06T09:38:40.944Z,3.54
2023-03-06T09:40:39.424Z,3.54
2023-03-06T09:41:19.490Z,3.74
2023-03-06T09:43:49.407Z,3.85
2023-03-06T09:45:39.598Z,3.85
2023-03-06T09:46:32.372Z,3.79
2023-03-06T09:49:10.112Z,3.89
2023-03-06T09:50:39.407Z,3.89
2023-03-06T09:51:51.625Z,3.64
2023-03-06T09:54:25.914Z,3.62
2023-03-06T09:55:39.401Z,3.62
2023-03-06T09:56:52.255Z,3.87
2023-03-06T09:59:24.995Z,3.84
2023-03-06T10:00:39.391Z,3.84
2023-03-06T10:02:01.380Z,2.82
2023-03-06T10:04:36.749Z,4.08
2023-03-06T10:05:39.388Z,4.08
2023-03-06T10:07:12.261Z,4.07
2023-03-06T10:09:48.073Z,4.02
2023-03-06T10:10:39.400Z,4.02
2023-03-06T10:12:28.677Z,4.05
2023-03-06T10:15:08.117Z,3.90
2023-03-06T10:15:39.497Z,3.90
2023-03-06T10:17:37.677Z,3.22
2023-03-06T10:20:23.714Z,3.32
2023-03-06T10:20:39.386Z,3.32
2023-03-06T10:23:13.662Z,3.06
2023-03-06T10:25:59.961Z,2.90
2023-03-06T10:26:00.202Z,2.90
2023-03-06T10:28:35.106Z,3.13
2023-03-06T10:30:39.399Z,3.13
2023-03-06T10:31:19.598Z,2.85
2023-03-06T10:34:01.823Z,3.10
2023-03-06T10:35:39.422Z,3.10
2023-03-06T10:36:29.076Z,2.12
2023-03-06T10:38:58.129Z,2.81
2023-03-06T10:40:39.388Z,2.81
2023-03-06T10:41:26.783Z,2.50
2023-03-06T10:44:05.258Z,3.02
2023-03-06T10:45:48.897Z,3.02
2023-03-06T10:46:35.868Z,3.03
2023-03-06T10:49:06.185Z,2.71
2023-03-06T10:50:39.398Z,2.71
2023-03-06T10:51:34.147Z,3.09
2023-03-06T10:54:03.101Z,3.22
2023-03-06T10:55:39.421Z,3.22
2023-03-06T10:56:34.123Z,3.51
2023-03-06T10:59:10.396Z,3.55
2023-03-06T11:00:39.413Z,3.55
2023-03-06T11:01:37.266Z,3.64
2023-03-06T11:04:24.010Z,3.70
2023-03-06T11:05:39.414Z,3.70
2023-03-06T11:07:12.428Z,3.48
2023-03-06T11:09:39.384Z,2.89
2023-03-06T11:10:39.412Z,2.89
2023-03-06T11:12:32.279Z,3.42
2023-03-06T11:15:14.074Z,3.88
2023-03-06T11:15:39.429Z,3.88
2023-03-06T11:18:01.683Z,4.03
2023-03-06T11:20:51.116Z,4.12
2023-03-06T11:20:53.277Z,4.12
2023-03-06T11:23:27.971Z,3.88
2023-03-06T11:25:39.422Z,3.88
2023-03-06T11:26:02.669Z,4.36
2023-03-06T11:28:34.422Z,3.87
2023-03-06T11:30:39.393Z,3.87
2023-03-06T11:31:16.507Z,4.28
2023-03-06T11:33:51.310Z,4.26
2023-03-06T11:35:39.412Z,4.26
2023-03-06T11:36:49.871Z,4.14
2023-03-06T11:39:40.252Z,3.97
2023-03-06T11:40:39.398Z,3.97
2023-03-06T11:42:17.297Z,3.72
2023-03-06T11:44:54.384Z,3.40
2023-03-06T11:45:39.408Z,3.40
2023-03-06T11:47:28.871Z,3.01
2023-03-06T11:50:24.836Z,3.82
2023-03-06T11:50:39.437Z,3.82
2023-03-06T11:52:55.129Z,3.79
2023-03-06T11:55:44.138Z,3.62
2023-03-06T11:55:44.307Z,3.62
2023-03-06T11:58:34.906Z,3.91
2023-03-06T12:00:39.394Z,3.91
2023-03-06T12:01:24.975Z,4.04
2023-03-06T12:04:11.674Z,3.75
2023-03-06T12:05:39.501Z,3.75
2023-03-06T12:07:01.067Z,3.65
2023-03-06T12:09:34.202Z,3.82
2023-03-06T12:10:39.418Z,3.82
2023-03-06T12:12:03.437Z,3.78
2023-03-06T12:14:47.135Z,3.73
2023-03-06T12:15:39.418Z,3.73
2023-03-06T12:17:24.427Z,3.33
2023-03-06T12:20:11.536Z,3.39
2023-03-06T12:20:39.430Z,3.39
2023-03-06T12:23:16.209Z,3.79
2023-03-06T12:25:39.417Z,3.79
2023-03-06T12:25:47.316Z,3.96
2023-03-06T12:28:29.018Z,3.88
2023-03-06T12:30:39.421Z,3.88
2023-03-06T12:31:14.207Z,3.88
2023-03-06T12:34:02.197Z,3.58
2023-03-06T12:35:39.443Z,3.58
2023-03-06T12:36:53.480Z,3.38
2023-03-06T12:39:46.804Z,3.38
2023-03-06T12:40:39.442Z,3.38
2023-03-06T12:42:36.154Z,3.52
2023-03-06T12:45:24.272Z,3.64
2023-03-06T12:45:39.482Z,3.64
2023-03-06T12:47:56.445Z,3.37
2023-03-06T12:50:36.867Z,3.71
2023-03-06T12:50:39.405Z,3.71
2023-03-06T12:53:07.773Z,3.04
2023-03-06T12:55:44.808Z,3.36
2023-03-06T12:55:44.982Z,3.36
2023-03-06T12:58:29.914Z,3.89
2023-03-06T13:00:39.417Z,3.89
2023-03-06T13:01:11.349Z,4.13
2023-03-06T13:03:57.502Z,3.51
2023-03-06T13:05:39.497Z,3.51
2023-03-06T13:06:41.870Z,4.21
2023-03-06T13:09:18.848Z,4.46
2023-03-06T13:10:39.433Z,4.46
2023-03-06T13:12:00.288Z,4.41
2023-03-06T13:14:54.673Z,4.09
2023-03-06T13:15:39.447Z,4.09
2023-03-06T13:17:24.364Z,4.76
2023-03-06T13:20:12.972Z,4.79
2023-03-06T13:20:39.433Z,4.79
2023-03-06T13:22:43.747Z,4.53
2023-03-06T13:25:19.004Z,4.83
2023-03-06T13:25:40.162Z,4.83
2023-03-06T13:27:54.275Z,4.71
2023-03-06T13:30:39.025Z,4.90
2023-03-06T13:30:39.506Z,4.90
2023-03-06T13:33:24.103Z,4.97
2023-03-06T13:35:39.462Z,4.97
2023-03-06T13:35:54.741Z,4.82
2023-03-06T13:38:31.750Z,4.57
2023-03-06T13:40:39.415Z,4.57
2023-03-06T13:41:22.742Z,4.18
2023-03-06T13:43:55.064Z,3.84
2023-03-06T13:45:39.434Z,3.84
2023-03-06T13:46:35.306Z,3.97
2023-03-06T13:49:07.540Z,4.01
2023-03-06T13:50:39.416Z,4.01
2023-03-06T13:51:41.885Z,3.98
2023-03-06T13:54:24.717Z,3.73
2023-03-06T13:55:39.454Z,3.73
2023-03-06T13:57:18.650Z,3.57
2023-03-06T14:00:08.209Z,2.03
2023-03-06T14:00:39.439Z,2.03
2023-03-06T14:03:05.983Z,2.85
2023-03-06T14:05:45.432Z,2.01
2023-03-06T14:05:45.548Z,2.01
2023-03-06T14:08:18.958Z,1.69
2023-03-06T14:10:39.465Z,1.69
2023-03-06T14:10:47.941Z,2.12
2023-03-06T14:13:18.481Z,2.37
2023-03-06T14:15:39.525Z,2.37
2023-03-06T14:15:49.349Z,2.65
2023-03-06T14:18:20.278Z,2.86
2023-03-06T14:20:39.429Z,2.86
2023-03-06T14:20:56.152Z,3.18
2023-03-06T14:23:30.099Z,3.45
2023-03-06T14:25:39.417Z,3.45
2023-03-06T14:25:59.191Z,1.47
2023-03-06T14:28:30.797Z,3.71
2023-03-06T14:30:39.442Z,3.71
2023-03-06T14:30:59.070Z,4.27
2023-03-06T14:33:32.109Z,4.53
2023-03-06T14:35:39.451Z,4.53
2023-03-06T14:36:02.516Z,4.50
2023-03-06T14:38:34.498Z,4.16
2023-03-06T14:40:39.439Z,4.16
2023-03-06T14:41:02.053Z,4.20
2023-03-06T14:43:28.715Z,4.30
2023-03-06T14:45:39.421Z,4.30
2023-03-06T14:45:57.996Z,4.23
2023-03-06T14:48:36.038Z,4.73
2023-03-06T14:50:41.041Z,4.73
2023-03-06T14:51:02.793Z,4.51
2023-03-06T14:53:32.076Z,4.79
2023-03-06T14:55:39.437Z,4.79
2023-03-06T14:56:01.019Z,4.53
2023-03-06T14:58:48.193Z,4.05
2023-03-06T15:00:39.474Z,4.05
2023-03-06T15:01:15.456Z,4.72
2023-03-06T15:03:51.981Z,4.38
2023-03-06T15:05:39.446Z,4.38
2023-03-06T15:06:31.245Z,4.70
2023-03-06T15:09:20.815Z,4.85
2023-03-06T15:10:39.426Z,4.85
2023-03-06T15:11:56.816Z,5.19
2023-03-06T15:14:31.528Z,5.48
2023-03-06T15:15:39.460Z,5.48
2023-03-06T15:17:17.571Z,5.10
2023-03-06T15:19:46.860Z,5.43
2023-03-06T15:20:39.464Z,5.43
2023-03-06T15:22:26.532Z,4.84
2023-03-06T15:24:53.493Z,5.16
2023-03-06T15:25:39.456Z,5.16
2023-03-06T15:27:30.149Z,4.87
2023-03-06T15:30:28.331Z,5.00
2023-03-06T15:30:39.444Z,5.00
2023-03-06T15:33:11.413Z,4.97
2023-03-06T15:35:38.556Z,4.77
2023-03-06T15:35:39.484Z,4.77
2023-03-06T15:38:23.912Z,4.27
2023-03-06T15:40:39.443Z,4.27
2023-03-06T15:40:58.698Z,4.65
2023-03-06T15:43:25.212Z,4.14
2023-03-06T15:45:39.534Z,4.14
2023-03-06T15:45:58.061Z,4.53
2023-03-06T15:48:24.462Z,4.82
2023-03-06T15:50:39.497Z,4.82
2023-03-06T15:50:51.023Z,4.84
2023-03-06T15:53:17.357Z,4.51
2023-03-06T15:55:39.426Z,4.51
2023-03-06T15:55:43.719Z,4.47
2023-03-06T15:58:16.102Z,3.99
2023-03-06T16:00:39.451Z,3.99
2023-03-06T16:00:42.830Z,3.65
2023-03-06T16:03:11.481Z,4.26
2023-03-06T16:05:37.934Z,4.14
2023-03-06T16:05:39.438Z,4.14
2023-03-06T16:08:05.220Z,4.45
2023-03-06T16:10:35.829Z,4.39
2023-03-06T16:10:39.468Z,4.39
2023-03-06T16:13:12.553Z,3.76
2023-03-06T16:15:45.304Z,4.29
2023-03-06T16:15:45.439Z,4.29
2023-03-06T16:18:12.831Z,4.02
2023-03-06T16:20:40.133Z,3.25
2023-03-06T16:20:40.370Z,3.25
2023-03-06T16:23:10.234Z,4.37
2023-03-06T16:25:38.870Z,4.18
2023-03-06T16:25:39.505Z,4.18
2023-03-06T16:28:11.012Z,4.08
2023-03-06T16:30:38.406Z,3.86
2023-03-06T16:30:39.575Z,3.86
2023-03-06T16:33:05.335Z,4.34
2023-03-06T16:35:31.862Z,4.29
2023-03-06T16:35:39.523Z,4.29
2023-03-06T16:37:59.774Z,4.06
2023-03-06T16:40:40.987Z,4.19
2023-03-06T16:40:41.415Z,4.19
2023-03-06T16:43:09.008Z,4.09
2023-03-06T16:45:39.489Z,3.93
2023-03-06T16:45:39.643Z,3.93
2023-03-06T16:48:06.531Z,3.95
2023-03-06T16:50:37.533Z,4.05
2023-03-06T16:50:39.469Z,4.05
2023-03-06T16:53:04.628Z,3.62
2023-03-06T16:55:31.058Z,3.79
2023-03-06T16:55:39.517Z,3.79
2023-03-06T16:57:57.385Z,3.46
2023-03-06T17:00:24.687Z,3.90
2023-03-06T17:00:39.444Z,3.90
2023-03-06T17:02:52.270Z,3.76
2023-03-06T17:05:19.371Z,3.48
2023-03-06T17:05:39.469Z,3.48
2023-03-06T17:07:46.183Z,3.76
2023-03-06T17:10:15.581Z,3.68
2023-03-06T17:10:39.457Z,3.68
2023-03-06T17:12:42.844Z,3.38
2023-03-06T17:15:10.833Z,3.28
2023-03-06T17:15:39.515Z,3.28
2023-03-06T17:17:37.570Z,2.84
2023-03-06T17:20:05.251Z,3.00
2023-03-06T17:20:39.461Z,3.00
2023-03-06T17:22:36.298Z,3.26
2023-03-06T17:25:06.645Z,3.12
2023-03-06T17:25:39.456Z,3.12
2023-03-06T17:27:34.144Z,2.77
2023-03-06T17:30:01.155Z,3.19
2023-03-06T17:30:39.502Z,3.19
2023-03-06T17:32:28.114Z,3.23
2023-03-06T17:34:54.669Z,3.09
2023-03-06T17:35:39.487Z,3.09
2023-03-06T17:37:21.260Z,3.13
2023-03-06T17:39:47.746Z,3.21
2023-03-06T17:40:39.448Z,3.21
2023-03-06T17:42:16.859Z,3.24
2023-03-06T17:44:43.198Z,3.30
2023-03-06T17:45:39.441Z,3.30
2023-03-06T17:47:09.650Z,3.09
2023-03-06T17:49:36.028Z,2.78
2023-03-06T17:50:39.470Z,2.78
2023-03-06T17:52:05.058Z,3.06
2023-03-06T17:54:33.147Z,2.81
2023-03-06T17:55:39.465Z,2.81
2023-03-06T17:57:05.138Z,3.31
2023-03-06T17:59:34.102Z,3.31
2023-03-06T18:00:39.441Z,3.31
2023-03-06T18:02:01.370Z,3.15
2023-03-06T18:04:28.390Z,2.72
2023-03-06T18:05:39.448Z,2.72
2023-03-06T18:06:54.866Z,3.32
2023-03-06T18:09:21.247Z,3.00
2023-03-06T18:10:39.463Z,3.00
2023-03-06T18:11:47.625Z,3.18
2023-03-06T18:14:14.215Z,3.33
2023-03-06T18:15:39.448Z,3.33
2023-03-06T18:16:40.818Z,3.35
2023-03-06T18:19:07.232Z,2.99
2023-03-06T18:20:39.449Z,2.99
2023-03-06T18:21:33.564Z,3.24
2023-03-06T18:24:00.000Z,3.03
2023-03-06T18:25:39.437Z,3.03
2023-03-06T18:26:28.676Z,3.39
2023-03-06T18:28:57.395Z,3.39
2023-03-06T18:30:39.492Z,3.39
2023-03-06T18:31:27.510Z,2.07
2023-03-06T18:33:56.614Z,3.07
2023-03-06T18:35:39.507Z,3.07
2023-03-06T18:36:24.849Z,3.30
2023-03-06T18:38:51.875Z,3.45
2023-03-06T18:40:39.470Z,3.45
2023-03-06T18:41:20.469Z,3.42
2023-03-06T18:43:57.823Z,3.44
2023-03-06T18:45:39.488Z,3.44
2023-03-06T18:46:26.023Z,3.26
2023-03-06T18:48:52.435Z,3.23
2023-03-06T18:50:39.492Z,3.23
2023-03-06T18:51:20.134Z,3.45
2023-03-06T18:53:46.633Z,3.36
2023-03-06T18:55:39.455Z,3.36
2023-03-06T18:56:16.637Z,3.07
2023-03-06T18:58:43.873Z,3.39
2023-03-06T19:00:39.502Z,3.39
2023-03-06T19:01:11.315Z,3.15
2023-03-06T19:03:37.788Z,2.92
2023-03-06T19:05:39.471Z,2.92
2023-03-06T19:06:09.511Z,3.31
2023-03-06T19:08:37.116Z,3.34
2023-03-06T19:10:39.461Z,3.34
2023-03-06T19:11:05.788Z,3.39
2023-03-06T19:13:32.539Z,2.91
2023-03-06T19:15:39.501Z,2.91
2023-03-06T19:15:59.256Z,3.36
2023-03-06T19:18:27.150Z,3.27
2023-03-06T19:20:39.484Z,3.27
2023-03-06T19:20:54.822Z,3.45
2023-03-06T19:23:21.885Z,3.26
2023-03-06T19:25:39.480Z,3.26
2023-03-06T19:25:58.887Z,3.45
2023-03-06T19:28:26.586Z,3.41
2023-03-06T19:30:39.451Z,3.41
2023-03-06T19:30:53.131Z,3.12
2023-03-06T19:33:19.954Z,3.37
2023-03-06T19:35:39.561Z,3.37
2023-03-06T19:35:46.606Z,3.08
2023-03-06T19:38:13.896Z,3.42
2023-03-06T19:40:40.347Z,2.70
2023-03-06T19:40:40.486Z,2.70
2023-03-06T19:43:06.685Z,3.45
2023-03-06T19:45:33.051Z,3.02
2023-03-06T19:45:39.463Z,3.02
2023-03-06T19:48:00.874Z,3.50
2023-03-06T19:50:30.710Z,3.46
2023-03-06T19:50:39.498Z,3.46
2023-03-06T19:52:57.535Z,3.45
2023-03-06T19:55:28.625Z,2.82
2023-03-06T19:55:39.526Z,2.82
2023-03-06T19:57:55.060Z,3.07
2023-03-06T20:00:21.699Z,3.04
2023-03-06T20:00:39.466Z,3.04
2023-03-06T20:02:49.405Z,2.88
2023-03-06T20:05:16.828Z,3.54
2023-03-06T20:05:39.478Z,3.54
2023-03-06T20:07:43.346Z,3.39
2023-03-06T20:10:10.509Z,3.19
2023-03-06T20:10:39.520Z,3.19
2023-03-06T20:12:36.864Z,3.41
2023-03-06T20:15:03.634Z,3.54
2023-03-06T20:15:39.593Z,3.54
2023-03-06T20:17:30.126Z,3.18
2023-03-06T20:19:56.678Z,3.27
2023-03-06T20:20:39.502Z,3.27
2023-03-06T20:22:23.042Z,3.46
2023-03-06T20:24:49.432Z,3.55
2023-03-06T20:25:39.485Z,3.55
2023-03-06T20:27:15.771Z,2.79
2023-03-06T20:29:44.616Z,3.22
2023-03-06T20:30:39.674Z,3.22
2023-03-06T20:32:12.119Z,3.49
2023-03-06T20:34:39.384Z,3.55
2023-03-06T20:35:39.565Z,3.55
2023-03-06T20:37:09.580Z,3.56
2023-03-06T20:39:36.872Z,3.58
2023-03-06T20:40:39.668Z,3.58
2023-03-06T20:42:04.856Z,3.24
2023-03-06T20:44:31.750Z,3.61
2023-03-06T20:45:39.491Z,3.61
2023-03-06T20:46:58.166Z,2.87
2023-03-06T20:49:27.039Z,3.23
2023-03-06T20:50:39.469Z,3.23
2023-03-06T20:51:53.961Z,3.58
2023-03-06T20:54:20.389Z,3.32
2023-03-06T20:55:39.467Z,3.32
2023-03-06T20:56:48.786Z,3.13
2023-03-06T20:59:15.886Z,3.34
2023-03-06T21:00:39.496Z,3.34
2023-03-06T21:01:44.739Z,3.33
2023-03-06T21:04:13.894Z,3.39
2023-03-06T21:05:39.499Z,3.39
2023-03-06T21:06:42.475Z,3.11
2023-03-06T21:09:08.910Z,3.62
2023-03-06T21:10:39.483Z,3.62
2023-03-06T21:11:35.303Z,3.66
2023-03-06T21:14:01.808Z,3.67
2023-03-06T21:15:39.520Z,3.67
2023-03-06T21:16:30.102Z,3.62
2023-03-06T21:18:58.287Z,3.22
2023-03-06T21:20:39.530Z,3.22
2023-03-06T21:21:28.089Z,3.59
2023-03-06T21:23:54.814Z,3.52
2023-03-06T21:25:39.554Z,3.52
2023-03-06T21:26:23.770Z,3.25
2023-03-06T21:28:50.590Z,2.77
2023-03-06T21:30:39.535Z,2.77
2023-03-06T21:31:19.107Z,3.32
2023-03-06T21:33:47.011Z,3.44
2023-03-06T21:35:39.679Z,3.44
2023-03-06T21:36:13.678Z,2.78
2023-03-06T21:38:40.309Z,3.35
2023-03-06T21:40:39.595Z,3.35
2023-03-06T21:41:24.589Z,3.34
2023-03-06T21:43:59.196Z,3.32
2023-03-06T21:45:39.638Z,3.32
2023-03-06T21:46:27.158Z,3.16
2023-03-06T21:48:54.241Z,2.37
2023-03-06T21:50:39.628Z,2.37
2023-03-06T21:51:23.356Z,3.33
2023-03-06T21:53:50.673Z,2.98
2023-03-06T21:55:39.634Z,2.98
2023-03-06T21:56:19.199Z,2.89
2023-03-06T21:58:45.942Z,2.70
2023-03-06T22:00:39.778Z,2.70
2023-03-06T22:01:24.205Z,2.92
2023-03-06T22:03:51.100Z,2.93
2023-03-06T22:05:39.681Z,2.93
2023-03-06T22:06:20.352Z,3.04
2023-03-06T22:08:47.036Z,2.96
2023-03-06T22:10:39.676Z,2.96
2023-03-06T22:11:16.970Z,3.44
2023-03-06T22:13:44.650Z,3.48